createdAt,value
2023-01-03T00:01:52.400Z,29.77
2023-01-03T00:04:18.991Z,29.80
2023-01-03T00:06:46.429Z,29.75
2023-01-03T00:09:13.561Z,29.74
2023-01-03T00:11:58.607Z,29.73
2023-01-03T00:14:28.759Z,29.69
2023-01-03T00:16:55.954Z,29.70
2023-01-03T00:19:22.943Z,29.71
2023-01-03T00:21:49.346Z,29.71
2023-01-03T00:24:15.975Z,29.73
2023-01-03T00:26:42.383Z,29.72
2023-01-03T00:29:08.904Z,29.74
2023-01-03T00:31:35.808Z,29.70
2023-01-03T00:34:04.571Z,29.79
2023-01-03T00:36:31.229Z,29.71
2023-01-03T00:38:58.762Z,29.77
2023-01-03T00:41:25.229Z,29.67
2023-01-03T00:43:51.631Z,29.76
2023-01-03T00:46:18.855Z,29.77
2023-01-03T00:48:45.384Z,29.76
2023-01-03T00:51:11.740Z,29.74
2023-01-03T00:53:38.460Z,29.71
2023-01-03T00:56:08.880Z,29.66
2023-01-03T00:58:35.485Z,29.71
2023-01-03T01:01:05.867Z,29.68
2023-01-03T01:03:32.626Z,29.71
2023-01-03T01:05:59.110Z,29.71
2023-01-03T01:08:25.601Z,29.72
2023-01-03T01:11:04.070Z,29.66
2023-01-03T01:13:33.636Z,29.69
2023-01-03T01:16:10.103Z,29.63
2023-01-03T01:18:36.687Z,29.74
2023-01-03T01:21:06.845Z,29.65
2023-01-03T01:23:34.632Z,29.73
2023-01-03T01:26:01.385Z,29.65
2023-01-03T01:28:27.867Z,29.67
2023-01-03T01:30:58.218Z,29.70
2023-01-03T01:33:24.783Z,29.77
2023-01-03T01:35:51.204Z,29.65
2023-01-03T01:38:17.688Z,29.68
2023-01-03T01:40:44.175Z,29.67
2023-01-03T01:43:42.085Z,29.75
2023-01-03T01:46:30.175Z,29.72
2023-01-03T01:48:57.548Z,29.69
2023-01-03T01:51:24.484Z,29.60
2023-01-03T01:53:50.921Z,29.69
2023-01-03T01:56:28.394Z,29.66
2023-01-03T01:58:55.328Z,29.65
2023-01-03T02:01:22.126Z,29.54
2023-01-03T02:04:04.294Z,29.54
2023-01-03T02:06:31.300Z,29.46
2023-01-03T02:08:57.718Z,29.45
2023-01-03T02:11:27.203Z,29.43
2023-01-03T02:13:53.620Z,29.53
2023-01-03T02:16:32.264Z,29.45
2023-01-03T02:19:01.646Z,29.43
2023-01-03T02:21:34.340Z,29.51
2023-01-03T02:24:07.242Z,29.54
2023-01-03T02:26:52.528Z,29.53
2023-01-03T02:29:20.565Z,29.53
2023-01-03T02:31:52.658Z,29.48
2023-01-03T02:34:21.793Z,29.53
2023-01-03T02:37:03.128Z,29.56
2023-01-03T02:39:29.542Z,29.48
2023-01-03T02:42:17.151Z,29.48
2023-01-03T02:44:47.214Z,29.50
2023-01-03T02:47:14.163Z,29.59
2023-01-03T02:49:44.847Z,29.56
2023-01-03T02:52:15.183Z,29.58
2023-01-03T02:54:41.887Z,29.54
2023-01-03T02:57:10.189Z,29.57
2023-01-03T02:59:37.836Z,29.64
2023-01-03T03:02:04.555Z,29.75
2023-01-03T03:04:31.119Z,29.95
2023-01-03T03:06:58.824Z,30.13
2023-01-03T03:09:25.262Z,30.20
2023-01-03T03:12:10.172Z,30.45
2023-01-03T03:14:43.590Z,30.67
2023-01-03T03:17:14.117Z,30.98
2023-01-03T03:20:03.248Z,31.24
2023-01-03T03:23:00.857Z,31.43
2023-01-03T03:25:34.020Z,31.63
2023-01-03T03:28:23.736Z,31.91
2023-01-03T03:30:52.072Z,32.08
2023-01-03T03:33:18.503Z,32.28
2023-01-03T03:35:47.940Z,32.47
2023-01-03T03:38:14.608Z,32.68
2023-01-03T03:41:00.158Z,32.81
2023-01-03T03:43:47.060Z,32.99
2023-01-03T03:46:24.915Z,32.92
2023-01-03T03:49:21.340Z,32.57
2023-01-03T03:51:47.901Z,32.02
2023-01-03T03:54:14.782Z,31.27
2023-01-03T03:56:41.212Z,30.28
2023-01-03T03:59:08.088Z,28.61
2023-01-03T04:01:35.441Z,26.54
2023-01-03T04:04:03.035Z,24.78
2023-01-03T04:06:34.250Z,23.62
2023-01-03T04:09:00.790Z,22.96
2023-01-03T04:11:27.405Z,22.67
2023-01-03T04:13:53.827Z,22.52
2023-01-03T04:16:20.287Z,22.37
2023-01-03T04:18:46.838Z,22.20
2023-01-03T04:21:18.770Z,22.04
2023-01-03T04:23:47.051Z,21.99
2023-01-03T04:26:13.531Z,21.90
2023-01-03T04:28:39.938Z,21.81
2023-01-03T04:31:06.365Z,21.78
2023-01-03T04:33:32.779Z,21.71
2023-01-03T04:35:59.241Z,21.66
2023-01-03T04:38:25.821Z,21.55
2023-01-03T04:40:52.192Z,21.48
2023-01-03T04:43:37.418Z,21.43
2023-01-03T04:46:03.878Z,21.41
2023-01-03T04:48:30.385Z,21.34
2023-01-03T04:50:58.363Z,21.28
2023-01-03T04:53:25.228Z,21.21
2023-01-03T04:55:52.027Z,21.15
2023-01-03T04:58:18.606Z,21.12
2023-01-03T05:00:45.102Z,21.01
2023-01-03T05:03:11.683Z,21.03
2023-01-03T05:05:38.352Z,21.04
2023-01-03T05:08:05.785Z,20.96
2023-01-03T05:10:32.321Z,20.94
2023-01-03T05:13:01.735Z,20.87
2023-01-03T05:15:28.533Z,20.83
2023-01-03T05:17:54.934Z,20.83
2023-01-03T05:20:40.239Z,20.83
2023-01-03T05:23:25.327Z,20.77
2023-01-03T05:25:51.836Z,20.78
2023-01-03T05:28:18.514Z,20.72
2023-01-03T05:30:45.121Z,20.71
2023-01-03T05:33:11.556Z,20.71
2023-01-03T05:35:38.361Z,20.68
2023-01-03T05:38:04.939Z,20.70
2023-01-03T05:40:36.199Z,20.70
2023-01-03T05:43:06.503Z,20.65
2023-01-03T05:45:35.152Z,20.66
2023-01-03T05:48:01.615Z,20.68
2023-01-03T05:50:28.193Z,20.63
2023-01-03T05:52:54.657Z,20.63
2023-01-03T05:55:21.057Z,20.64
2023-01-03T05:57:47.620Z,20.62
2023-01-03T06:00:14.240Z,20.64
2023-01-03T06:02:40.755Z,20.59
2023-01-03T06:05:07.472Z,20.62
2023-01-03T06:07:34.067Z,20.60
2023-01-03T06:10:00.575Z,20.60
2023-01-03T06:12:27.175Z,20.57
2023-01-03T06:14:53.588Z,20.56
2023-01-03T06:17:38.868Z,20.53
2023-01-03T06:20:05.431Z,20.53
2023-01-03T06:22:34.993Z,20.49
2023-01-03T06:25:01.388Z,20.44
2023-01-03T06:27:27.876Z,20.37
2023-01-03T06:29:54.371Z,20.30
2023-01-03T06:32:20.847Z,20.23
2023-01-03T06:34:47.283Z,20.20
2023-01-03T06:37:13.717Z,20.16
2023-01-03T06:39:40.117Z,20.11
2023-01-03T06:42:25.356Z,20.09
2023-01-03T06:45:10.125Z,20.13
2023-01-03T06:47:55.672Z,20.36
2023-01-03T06:50:40.473Z,20.67
2023-01-03T06:53:12.515Z,21.01
2023-01-03T06:55:39.152Z,21.40
2023-01-03T06:58:05.584Z,21.78
2023-01-03T07:00:32.023Z,22.17
2023-01-03T07:02:58.504Z,22.51
2023-01-03T07:05:25.028Z,22.96
2023-01-03T07:07:51.505Z,23.51
2023-01-03T07:10:17.960Z,23.99
2023-01-03T07:13:02.875Z,24.21
2023-01-03T07:15:29.383Z,24.10
2023-01-03T07:17:56.047Z,23.80
2023-01-03T07:20:22.588Z,23.52
2023-01-03T07:22:49.056Z,22.56
2023-01-03T07:25:15.510Z,21.96
2023-01-03T07:27:42.031Z,21.85
2023-01-03T07:30:08.848Z,22.02
2023-01-03T07:32:35.232Z,22.38
2023-01-03T07:35:02.336Z,22.66
2023-01-03T07:37:28.766Z,22.69
2023-01-03T07:39:55.223Z,22.87
2023-01-03T07:42:40.084Z,22.90
2023-01-03T07:45:07.160Z,23.58
2023-01-03T07:47:33.677Z,23.50
2023-01-03T07:50:00.620Z,23.42
2023-01-03T07:52:27.585Z,23.30
2023-01-03T07:54:54.165Z,23.51
2023-01-03T07:57:20.578Z,23.56
2023-01-03T07:59:46.996Z,23.73
2023-01-03T08:02:13.531Z,24.17
2023-01-03T08:04:41.105Z,24.15
2023-01-03T08:07:07.667Z,24.34
2023-01-03T08:09:53.074Z,24.47
2023-01-03T08:12:38.219Z,24.17
2023-01-03T08:15:05.059Z,23.72
2023-01-03T08:17:31.588Z,23.96
2023-01-03T08:19:58.061Z,23.58
2023-01-03T08:22:24.549Z,23.23
2023-01-03T08:24:51.010Z,23.26
2023-01-03T08:27:17.467Z,22.90
2023-01-03T08:29:45.761Z,22.76
2023-01-03T08:32:12.300Z,22.75
2023-01-03T08:34:38.735Z,22.69
2023-01-03T08:37:07.723Z,22.70
2023-01-03T08:39:35.834Z,22.88
2023-01-03T08:42:04.428Z,22.98
2023-01-03T08:44:30.887Z,22.88
2023-01-03T08:46:57.636Z,22.84
2023-01-03T08:49:24.160Z,22.66
2023-01-03T08:51:50.649Z,22.97
2023-01-03T08:54:17.071Z,23.10
2023-01-03T08:56:43.529Z,23.07
2023-01-03T08:59:09.975Z,22.92
2023-01-03T09:01:36.483Z,22.98
2023-01-03T09:04:05.287Z,22.80
2023-01-03T09:06:31.892Z,22.73
2023-01-03T09:09:00.286Z,22.86
2023-01-03T09:11:29.300Z,22.83
2023-01-03T09:13:55.819Z,22.74
2023-01-03T09:16:22.384Z,22.70
2023-01-03T09:18:48.834Z,22.72
2023-01-03T09:21:15.281Z,22.67
2023-01-03T09:23:41.695Z,22.79
2023-01-03T09:26:08.292Z,22.90
2023-01-03T09:28:34.710Z,22.77
2023-01-03T09:31:01.826Z,22.71
2023-01-03T09:33:28.430Z,22.79
2023-01-03T09:35:54.987Z,22.83
2023-01-03T09:38:22.137Z,22.89
2023-01-03T09:40:48.565Z,22.71
2023-01-03T09:43:25.019Z,22.70
2023-01-03T09:45:56.652Z,22.81
2023-01-03T09:48:28.528Z,22.69
2023-01-03T09:51:18.321Z,22.94
2023-01-03T09:53:59.761Z,22.91
2023-01-03T09:56:45.266Z,22.85
2023-01-03T09:59:31.414Z,22.97
2023-01-03T10:02:40.121Z,22.88
2023-01-03T10:05:18.776Z,22.83
2023-01-03T10:07:48.185Z,22.88
2023-01-03T10:10:14.836Z,23.12
2023-01-03T10:12:53.370Z,23.18
2023-01-03T10:15:25.720Z,23.25
2023-01-03T10:18:11.206Z,23.57
2023-01-03T10:20:57.121Z,23.79
2023-01-03T10:23:23.586Z,24.17
2023-01-03T10:25:50.249Z,24.48
2023-01-03T10:28:23.430Z,24.64
2023-01-03T10:30:56.740Z,24.98
2023-01-03T10:33:28.831Z,25.08
2023-01-03T10:35:56.605Z,25.34
2023-01-03T10:38:23.312Z,25.75
2023-01-03T10:40:59.663Z,26.37
2023-01-03T10:43:29.491Z,26.66
2023-01-03T10:45:59.092Z,26.82
2023-01-03T10:48:25.969Z,26.55
2023-01-03T10:50:53.395Z,26.17
2023-01-03T10:53:20.884Z,26.02
2023-01-03T10:55:49.009Z,25.45
2023-01-03T10:58:27.982Z,24.62
2023-01-03T11:01:09.836Z,24.10
2023-01-03T11:03:37.730Z,23.94
2023-01-03T11:06:04.200Z,23.94
2023-01-03T11:08:46.772Z,24.06
2023-01-03T11:11:51.785Z,23.79
2023-01-03T11:14:26.099Z,23.62
2023-01-03T11:17:02.126Z,23.68
2023-01-03T11:19:29.811Z,23.66
2023-01-03T11:22:14.978Z,23.82
2023-01-03T11:24:53.265Z,24.00
2023-01-03T11:27:32.004Z,24.12
2023-01-03T11:29:59.175Z,23.58
2023-01-03T11:32:40.977Z,23.64
2023-01-03T11:35:23.329Z,23.76
2023-01-03T11:37:50.621Z,24.00
2023-01-03T11:40:17.325Z,24.20
2023-01-03T11:43:06.849Z,24.25
2023-01-03T11:45:44.788Z,24.17
2023-01-03T11:48:20.909Z,24.08
2023-01-03T11:50:47.517Z,23.97
2023-01-03T11:53:19.820Z,23.96
2023-01-03T11:56:04.954Z,23.84
2023-01-03T11:58:50.417Z,23.72
2023-01-03T12:01:22.962Z,23.85
2023-01-03T12:04:07.743Z,23.77
2023-01-03T12:06:35.732Z,23.74
2023-01-03T12:09:11.306Z,23.84
2023-01-03T12:11:43.005Z,23.81
2023-01-03T12:14:09.526Z,23.95
2023-01-03T12:16:36.028Z,23.90
2023-01-03T12:19:05.660Z,23.83
2023-01-03T12:21:40.608Z,23.95
2023-01-03T12:24:10.849Z,23.77
2023-01-03T12:26:37.635Z,24.09
2023-01-03T12:29:05.582Z,24.14
2023-01-03T12:31:43.783Z,24.07
2023-01-03T12:34:26.581Z,24.24
2023-01-03T12:37:05.550Z,24.29
2023-01-03T12:39:37.875Z,24.31
2023-01-03T12:42:04.298Z,24.43
2023-01-03T12:44:36.771Z,24.55
2023-01-03T12:47:03.327Z,24.51
2023-01-03T12:49:41.347Z,24.50
2023-01-03T12:52:14.913Z,24.57
2023-01-03T12:54:46.500Z,24.52
2023-01-03T12:57:22.215Z,24.45
2023-01-03T13:00:05.173Z,24.61
2023-01-03T13:02:31.884Z,24.73
2023-01-03T13:05:11.907Z,24.88
2023-01-03T13:07:38.359Z,24.83
2023-01-03T13:10:06.091Z,24.76
2023-01-03T13:12:35.097Z,24.83
2023-01-03T13:15:13.929Z,24.92
2023-01-03T13:17:48.803Z,24.96
2023-01-03T13:20:18.359Z,24.91
2023-01-03T13:22:54.524Z,24.92
2023-01-03T13:25:27.107Z,24.95
2023-01-03T13:27:53.998Z,25.07
2023-01-03T13:30:24.075Z,25.31
2023-01-03T13:32:54.184Z,25.40
2023-01-03T13:35:29.145Z,25.58
2023-01-03T13:37:55.601Z,25.78
2023-01-03T13:40:23.108Z,25.89
2023-01-03T13:42:50.354Z,26.16
2023-01-03T13:45:19.727Z,26.40
2023-01-03T13:47:49.653Z,26.56
2023-01-03T13:50:23.251Z,26.98
2023-01-03T13:53:02.480Z,27.45
2023-01-03T13:55:34.883Z,27.71
2023-01-03T13:58:01.457Z,27.98
2023-01-03T14:00:27.875Z,27.78
2023-01-03T14:03:09.289Z,27.43
2023-01-03T14:05:54.677Z,27.14
2023-01-03T14:08:21.303Z,26.71
2023-01-03T14:11:07.089Z,25.90
2023-01-03T14:13:40.551Z,25.17
2023-01-03T14:16:12.874Z,24.55
2023-01-03T14:18:39.346Z,24.39
2023-01-03T14:21:10.332Z,24.39
2023-01-03T14:23:59.548Z,24.31
2023-01-03T14:26:26.908Z,24.27
2023-01-03T14:28:53.947Z,24.27
2023-01-03T14:31:21.390Z,24.20
2023-01-03T14:33:51.301Z,24.28
2023-01-03T14:36:17.818Z,24.19
2023-01-03T14:38:52.971Z,24.16
2023-01-03T14:41:22.504Z,24.21
2023-01-03T14:43:48.954Z,24.17
2023-01-03T14:46:15.444Z,24.22
2023-01-03T14:48:45.703Z,24.17
2023-01-03T14:51:12.104Z,24.21
2023-01-03T14:53:38.513Z,23.98
2023-01-03T14:56:06.958Z,24.00
2023-01-03T14:58:38.504Z,23.82
2023-01-03T15:01:05.712Z,23.78
2023-01-03T15:03:33.929Z,23.77
2023-01-03T15:06:00.659Z,23.81
2023-01-03T15:09:02.234Z,23.82
2023-01-03T15:11:30.186Z,23.80
2023-01-03T15:14:03.277Z,23.75
2023-01-03T15:16:40.023Z,23.78
2023-01-03T15:19:06.531Z,23.68
2023-01-03T15:21:33.014Z,23.55
2023-01-03T15:23:59.472Z,23.57
2023-01-03T15:26:26.894Z,23.50
2023-01-03T15:28:54.156Z,23.38
2023-01-03T15:31:23.621Z,23.44
2023-01-03T15:34:03.538Z,23.49
2023-01-03T15:36:30.440Z,23.39
2023-01-03T15:38:56.955Z,23.36
2023-01-03T15:41:42.802Z,23.28
2023-01-03T15:44:09.275Z,23.18
2023-01-03T15:46:36.174Z,23.17
2023-01-03T15:49:02.597Z,23.08
2023-01-03T15:51:29.077Z,23.06
2023-01-03T15:53:55.515Z,23.03
2023-01-03T15:56:22.866Z,23.02
2023-01-03T15:58:49.481Z,22.98
2023-01-03T16:01:16.045Z,23.05
2023-01-03T16:03:42.616Z,22.99
2023-01-03T16:06:09.151Z,22.93
2023-01-03T16:08:36.280Z,22.97
2023-01-03T16:11:03.489Z,22.93
2023-01-03T16:13:31.405Z,22.89
2023-01-03T16:15:58.035Z,22.88
2023-01-03T16:18:26.722Z,22.83
2023-01-03T16:20:54.476Z,22.76
2023-01-03T16:23:28.416Z,22.81
2023-01-03T16:25:54.893Z,22.74
2023-01-03T16:28:21.689Z,22.72
2023-01-03T16:30:49.351Z,22.78
2023-01-03T16:33:19.544Z,22.71
2023-01-03T16:35:46.635Z,22.69
2023-01-03T16:38:14.418Z,22.66
2023-01-03T16:40:40.996Z,22.61
2023-01-03T16:43:07.448Z,22.57
2023-01-03T16:45:34.117Z,22.58
2023-01-03T16:48:00.647Z,22.56
2023-01-03T16:50:27.060Z,22.62
2023-01-03T16:52:54.070Z,22.74
2023-01-03T16:55:32.269Z,22.86
2023-01-03T16:57:58.855Z,23.11
2023-01-03T17:00:29.886Z,23.39
2023-01-03T17:02:59.245Z,23.74
2023-01-03T17:05:26.307Z,24.12
2023-01-03T17:07:53.081Z,24.59
2023-01-03T17:10:22.459Z,24.88
2023-01-03T17:12:48.841Z,25.22
2023-01-03T17:15:15.291Z,25.61
2023-01-03T17:17:41.793Z,26.10
2023-01-03T17:20:13.691Z,26.70
2023-01-03T17:22:40.350Z,26.95
2023-01-03T17:25:08.657Z,26.83
2023-01-03T17:27:35.083Z,26.49
2023-01-03T17:30:02.492Z,26.13
2023-01-03T17:32:30.072Z,25.74
2023-01-03T17:34:56.587Z,25.05
2023-01-03T17:37:23.108Z,24.12
2023-01-03T17:39:59.806Z,23.32
2023-01-03T17:42:26.227Z,22.78
2023-01-03T17:45:11.633Z,22.72
2023-01-03T17:48:00.817Z,22.58
2023-01-03T17:50:27.596Z,22.59
2023-01-03T17:52:56.268Z,22.62
2023-01-03T17:55:23.891Z,22.66
2023-01-03T17:57:50.432Z,22.74
2023-01-03T18:00:16.999Z,22.74
2023-01-03T18:02:43.680Z,22.74
2023-01-03T18:05:17.580Z,22.79
2023-01-03T18:07:47.759Z,22.76
2023-01-03T18:10:15.061Z,22.78
2023-01-03T18:12:41.561Z,22.77
2023-01-03T18:15:17.491Z,22.74
2023-01-03T18:17:44.027Z,22.73
2023-01-03T18:20:12.128Z,22.70
2023-01-03T18:22:38.651Z,22.70
2023-01-03T18:25:05.300Z,22.71
2023-01-03T18:27:31.749Z,22.65
2023-01-03T18:29:58.233Z,22.68
2023-01-03T18:32:28.802Z,22.73
2023-01-03T18:34:55.337Z,22.71
2023-01-03T18:37:23.135Z,22.73
2023-01-03T18:39:49.556Z,22.78
2023-01-03T18:42:34.681Z,22.75
2023-01-03T18:45:01.179Z,22.77
2023-01-03T18:47:27.671Z,22.75
2023-01-03T18:49:54.113Z,22.66
2023-01-03T18:52:27.074Z,22.70
2023-01-03T18:54:53.513Z,22.71
2023-01-03T18:57:19.971Z,22.65
2023-01-03T18:59:46.553Z,22.68
2023-01-03T19:02:14.229Z,22.60
2023-01-03T19:04:41.574Z,22.61
2023-01-03T19:07:29.453Z,22.70
2023-01-03T19:09:56.045Z,22.67
2023-01-03T19:12:22.567Z,22.66
2023-01-03T19:14:49.043Z,22.66
2023-01-03T19:17:19.027Z,22.62
2023-01-03T19:19:45.496Z,22.71
2023-01-03T19:22:30.704Z,22.68
2023-01-03T19:24:58.377Z,22.66
2023-01-03T19:27:26.846Z,22.67
2023-01-03T19:29:53.356Z,22.64
2023-01-03T19:32:23.636Z,22.59
2023-01-03T19:34:50.085Z,22.62
2023-01-03T19:37:16.542Z,22.64
2023-01-03T19:39:43.192Z,22.64
2023-01-03T19:42:32.153Z,22.68
2023-01-03T19:44:59.283Z,22.69
2023-01-03T19:47:25.857Z,22.67
2023-01-03T19:49:52.328Z,22.71
2023-01-03T19:52:18.748Z,22.69
2023-01-03T19:54:45.342Z,22.69
2023-01-03T19:57:21.755Z,22.70
2023-01-03T19:59:49.544Z,22.64
2023-01-03T20:02:25.540Z,22.71
2023-01-03T20:04:52.567Z,22.90
2023-01-03T20:07:19.070Z,23.18
2023-01-03T20:09:45.482Z,23.48
2023-01-03T20:12:15.449Z,24.01
2023-01-03T20:14:42.926Z,24.47
2023-01-03T20:17:27.598Z,24.91
2023-01-03T20:19:54.107Z,25.31
2023-01-03T20:22:53.533Z,25.85
2023-01-03T20:25:13.127Z,26.26
2023-01-03T20:27:44.559Z,26.69
2023-01-03T20:30:18.088Z,27.02
2023-01-03T20:32:44.589Z,27.31
2023-01-03T20:35:56.297Z,27.55
2023-01-03T20:38:01.453Z,27.84
2023-01-03T20:40:27.866Z,28.17
2023-01-03T20:42:54.404Z,28.44
2023-01-03T20:45:21.198Z,28.69
2023-01-03T20:47:49.964Z,29.06
2023-01-03T20:50:17.355Z,29.32
2023-01-03T20:52:44.438Z,29.57
2023-01-03T20:55:17.540Z,29.85
2023-01-03T20:57:44.036Z,30.12
2023-01-03T21:00:17.656Z,30.42
2023-01-03T21:02:44.223Z,30.66
2023-01-03T21:05:10.857Z,30.87
2023-01-03T21:07:55.915Z,31.17
2023-01-03T21:10:23.283Z,31.40
2023-01-03T21:12:49.752Z,31.59
2023-01-03T21:15:16.238Z,31.89
2023-01-03T21:17:48.782Z,32.09
2023-01-03T21:20:18.950Z,32.29
2023-01-03T21:22:45.336Z,32.62
2023-01-03T21:25:32.923Z,32.85
2023-01-03T21:27:59.883Z,33.00
2023-01-03T21:30:26.571Z,33.21
2023-01-03T21:32:52.963Z,33.39
2023-01-03T21:35:20.160Z,33.52
2023-01-03T21:37:46.785Z,33.65
2023-01-03T21:40:33.484Z,33.79
2023-01-03T21:43:03.572Z,33.92
2023-01-03T21:45:34.302Z,34.11
2023-01-03T21:48:01.515Z,34.23
2023-01-03T21:50:28.192Z,34.33
2023-01-03T21:52:54.687Z,34.40
2023-01-03T21:55:21.412Z,34.51
2023-01-03T21:57:48.235Z,34.62
2023-01-03T22:00:14.826Z,34.72
2023-01-03T22:03:00.571Z,34.78
2023-01-03T22:05:27.516Z,34.91
2023-01-03T22:07:53.969Z,34.97
2023-01-03T22:10:20.410Z,35.00
2023-01-03T22:12:47.867Z,35.06
2023-01-03T22:15:14.333Z,35.14
2023-01-03T22:17:40.855Z,35.23
2023-01-03T22:20:07.995Z,35.31
2023-01-03T22:22:34.600Z,35.35
2023-01-03T22:25:01.033Z,35.38
2023-01-03T22:27:27.468Z,35.55
2023-01-03T22:29:53.904Z,35.53
2023-01-03T22:32:24.034Z,35.62
2023-01-03T22:34:50.562Z,35.62
2023-01-03T22:37:17.017Z,35.62
2023-01-03T22:39:43.445Z,35.72
2023-01-03T22:42:13.304Z,35.81
2023-01-03T22:44:42.500Z,35.76
2023-01-03T22:47:08.936Z,35.65
2023-01-03T22:49:35.870Z,35.53
2023-01-03T22:52:02.321Z,35.57
2023-01-03T22:54:28.771Z,35.52
2023-01-03T22:56:56.335Z,35.67
2023-01-03T22:59:23.117Z,35.67
2023-01-03T23:01:50.314Z,35.56
2023-01-03T23:04:19.248Z,35.60
2023-01-03T23:06:45.975Z,35.60
2023-01-03T23:09:12.704Z,35.68
2023-01-03T23:11:57.930Z,35.71
2023-01-03T23:14:24.761Z,35.64
2023-01-03T23:16:51.438Z,35.66
2023-01-03T23:19:18.832Z,35.75
2023-01-03T23:21:45.543Z,35.85
2023-01-03T23:24:12.852Z,35.81
2023-01-03T23:26:39.328Z,35.69
2023-01-03T23:29:05.779Z,35.50
2023-01-03T23:31:32.260Z,35.60
2023-01-03T23:33:58.857Z,35.60
2023-01-03T23:36:25.258Z,35.69
2023-01-03T23:38:51.791Z,35.58
2023-01-03T23:41:19.663Z,35.70
2023-01-03T23:43:46.160Z,35.41
2023-01-03T23:46:14.297Z,35.34
2023-01-03T23:48:40.747Z,35.51
2023-01-03T23:51:07.633Z,35.65
2023-01-03T23:53:41.000Z,35.56
2023-01-03T23:56:14.686Z,35.66
2023-01-03T23:58:41.718Z,35.66
